Time;durP1;ratioP1;P1;durP2;ratioP2;P2;SDS_P1;SDS_P2;PMS_P1;PMS_P2;Temp;Humidity;BMP_temperature;BMP_pressure;BME280_temperature;BME280_humidity;BME280_pressure;Samples;Min_cycle;Max_cycle;Signal;HPM_P1;HPM_P2
2021/10/20 00:00:18;;;;;;;;;7.25;7.00;;;;;19.91;54.48;100720.31;5079947;28;45484;-82
2021/10/20 00:02:45;;;;;;;;;9.00;9.00;;;;;19.90;54.41;100713.31;5081430;28;45573;-82
2021/10/20 00:05:11;;;;;;;;;9.50;8.75;;;;;19.77;54.42;100681.06;5084491;28;46400;-83
2021/10/20 00:07:36;;;;;;;;;6.75;6.50;;;;;19.89;54.67;100711.66;5082793;28;46148;-82
2021/10/20 00:10:03;;;;;;;;;9.50;9.50;;;;;19.63;54.31;100666.63;5077553;28;45674;-83
2021/10/20 00:12:29;;;;;;;;;7.50;6.25;;;;;19.73;54.67;100674.41;5059341;28;45533;-82
2021/10/20 00:14:54;;;;;;;;;9.25;8.00;;;;;19.85;54.74;100697.84;5058885;28;47404;-82
2021/10/20 00:20:41;;;;;;;;;8.50;7.00;;;;;19.86;54.59;100698.69;5076951;28;45600;-83
2021/10/20 00:23:09;;;;;;;;;10.00;9.50;;;;;19.75;54.90;100665.28;5077282;28;45732;-82
2021/10/20 00:25:36;;;;;;;;;7.00;6.75;;;;;19.83;54.98;100678.56;5076975;28;46852;-82
2021/10/20 00:28:01;;;;;;;;;7.50;6.00;;;;;19.86;54.85;100682.75;5077231;28;45920;-82
2021/10/20 00:30:27;;;;;;;;;9.50;7.25;;;;;19.84;55.21;100669.59;5076864;28;45706;-83
2021/10/20 00:32:52;;;;;;;;;9.25;9.25;;;;;19.85;55.31;100670.44;5077564;28;45471;-83
2021/10/20 00:35:17;;;;;;;;;9.50;9.00;;;;;19.78;54.82;100656.13;5076935;28;45580;-83
2021/10/20 00:37:43;;;;;;;;;10.00;9.50;;;;;19.86;55.03;100678.25;5076814;28;45649;-83
2021/10/20 00:40:10;;;;;;;;;8.00;7.50;;;;;19.60;55.43;100635.03;5077258;28;45475;-82
2021/10/20 00:42:35;;;;;;;;;8.50;8.50;;;;;19.67;55.38;100644.84;5077192;28;45605;-82
2021/10/20 00:45:04;;;;;;;;;8.50;8.00;;;;;19.83;55.51;100659.13;5076707;28;46689;-83
2021/10/20 00:50:52;;;;;;;;;7.75;6.75;;;;;19.80;55.53;100641.69;5077664;28;45795;-82
2021/10/20 00:53:17;;;;;;;;;9.50;9.50;;;;;19.73;55.71;100631.88;5078091;28;45958;-82
2021/10/20 00:55:43;;;;;;;;;9.50;7.50;;;;;19.80;55.54;100641.69;5076672;28;45728;-82
2021/10/20 00:58:09;;;;;;;;;7.00;7.00;;;;;19.67;55.61;100620.09;5076707;28;45633;-83
2021/10/20 01:07:40;;;;;;;;;7.50;7.00;;;;;19.79;55.79;100633.88;5055928;28;46151;-82
2021/10/20 01:10:08;;;;;;;;;7.50;6.75;;;;;19.75;55.83;100627.25;5056080;28;46409;-82
2021/10/20 01:12:35;;;;;;;;;7.25;6.25;;;;;19.78;55.86;100633.03;5038110;28;45755;-82
2021/10/20 01:15:01;;;;;;;;;8.75;8.00;;;;;19.58;55.87;100602.50;5038262;28;45677;-83
2021/10/20 01:20:54;;;;;;;;;10.25;9.00;;;;;19.76;56.02;100612.94;5055801;28;45656;-83
2021/10/20 01:23:20;;;;;;;;;10.75;9.50;;;;;19.58;56.06;100587.38;5056139;28;45661;-82
2021/10/20 01:25:46;;;;;;;;;8.25;7.00;;;;;19.73;56.15;100615.94;5056115;28;45699;-80
2021/10/20 01:28:12;;;;;;;;;9.00;8.25;;;;;19.74;56.30;100612.28;5037647;28;48203;-81
2021/10/20 01:30:37;;;;;;;;;9.00;9.00;;;;;19.74;56.17;100601.66;5055822;28;46519;-83
2021/10/20 01:36:24;;;;;;;;;9.75;9.50;;;;;19.64;56.58;100583.22;5055470;28;45736;-82
2021/10/20 01:38:52;;;;;;;;;8.00;8.00;;;;;19.45;56.72;100555.16;5055859;28;46330;-83
2021/10/20 01:41:17;;;;;;;;;8.50;8.50;;;;;19.59;56.60;100589.03;5039529;28;46381;-82
2021/10/20 01:43:49;;;;;;;;;8.50;8.25;;;;;19.64;56.19;100584.06;5063015;28;45757;-83
2021/10/20 01:46:18;;;;;;;;;12.00;11.25;;;;;19.63;56.51;100571.75;5062872;28;45615;-82
2021/10/20 01:48:45;;;;;;;;;11.25;10.50;;;;;19.39;56.45;100534.53;5063359;28;45729;-83
2021/10/20 01:51:10;;;;;;;;;8.75;8.50;;;;;19.60;56.82;100573.91;5059007;28;46077;-83
2021/10/20 01:53:36;;;;;;;;;10.25;8.25;;;;;19.49;56.67;100547.66;5055629;28;45907;-83
2021/10/20 01:56:02;;;;;;;;;9.50;9.25;;;;;19.48;56.96;100540.72;5055525;28;45510;-83
2021/10/20 01:58:27;;;;;;;;;9.25;9.25;;;;;19.61;57.01;100554.31;5055410;28;46609;-83
2021/10/20 02:00:52;;;;;;;;;13.00;12.00;;;;;19.58;57.13;100536.88;5055256;28;45638;-83
2021/10/20 02:06:43;;;;;;;;;11.25;11.00;;;;;19.54;57.22;100529.41;5067498;28;45736;-83
2021/10/20 02:09:12;;;;;;;;;11.25;10.50;;;;;19.44;57.23;100520.72;5075493;28;45755;-82
2021/10/20 02:11:41;;;;;;;;;11.50;10.00;;;;;19.49;57.35;100521.09;5075442;28;46151;-83
2021/10/20 02:14:08;;;;;;;;;9.75;9.25;;;;;19.51;57.18;100514.63;5057244;28;45797;-82
2021/10/20 02:16:35;;;;;;;;;11.00;10.50;;;;;19.51;57.41;100511.13;5075757;28;45463;-83
2021/10/20 02:19:01;;;;;;;;;8.50;8.50;;;;;19.35;57.57;100487.22;5075233;28;46404;-82
2021/10/20 02:21:27;;;;;;;;;10.50;10.00;;;;;19.32;57.55;100482.25;5075261;28;45936;-83
2021/10/20 02:23:52;;;;;;;;;10.50;10.50;;;;;19.45;57.52;100504.66;5075227;28;45529;-82
2021/10/20 02:26:18;;;;;;;;;8.25;8.25;;;;;19.39;57.85;100499.16;5075275;28;45733;-82
2021/10/20 02:28:43;;;;;;;;;11.75;10.50;;;;;19.38;58.03;100486.88;5075688;28;46664;-83
2021/10/20 02:31:08;;;;;;;;;10.75;8.75;;;;;19.44;57.86;100495.00;5058541;28;47393;-83
2021/10/20 02:36:56;;;;;;;;;16.00;11.50;;;;;19.24;57.71;100452.03;5076747;28;45669;-83
2021/10/20 02:39:21;;;;;;;;;11.75;11.25;;;;;19.40;57.74;100468.94;5058727;28;48611;-83
2021/10/20 02:41:47;;;;;;;;;11.25;9.50;;;;;19.38;57.68;100471.75;5056596;28;47255;-83
2021/10/20 02:44:13;;;;;;;;;11.00;10.00;;;;;19.14;58.13;100431.97;5074976;28;45560;-83
2021/10/20 02:53:21;;;;;;;;;9.25;9.25;;;;;19.26;58.40;100444.72;5074555;28;45742;-83
2021/10/20 02:55:46;;;;;;;;;11.25;11.25;;;;;19.21;57.99;100433.78;5074717;28;45582;-82
2021/10/20 02:58:12;;;;;;;;;12.75;12.00;;;;;19.25;58.24;100437.75;5056341;28;46017;-83
2021/10/20 03:00:37;;;;;;;;;14.50;12.25;;;;;19.05;58.30;100404.59;5074574;28;46869;-82
2021/10/20 03:03:03;;;;;;;;;11.00;10.50;;;;;19.16;58.40;100414.03;5074662;28;45458;-81
2021/10/20 03:05:28;;;;;;;;;13.50;12.00;;;;;19.22;58.34;100440.72;5074490;28;45748;-82
2021/10/20 03:07:56;;;;;;;;;13.25;11.75;;;;;19.20;58.62;100432.13;5074207;28;45713;-81
2021/10/20 03:10:22;;;;;;;;;11.25;10.00;;;;;19.10;58.28;100428.81;5056078;28;48391;-82
2021/10/20 03:12:47;;;;;;;;;15.00;13.00;;;;;19.00;59.08;100409.56;5074959;28;45641;-82
2021/10/20 03:15:13;;;;;;;;;11.75;10.25;;;;;19.05;58.68;100427.66;5075995;28;45836;-81
2021/10/20 03:17:38;;;;;;;;;12.75;11.25;;;;;19.08;58.90;100440.59;5056329;28;45783;-83
2021/10/20 03:20:08;;;;;;;;;14.50;12.75;;;;;19.07;58.94;100449.56;5057984;28;47490;-83
2021/10/20 03:22:42;;;;;;;;;11.75;11.00;;;;;18.96;58.79;100442.75;5076404;28;46115;-82
2021/10/20 03:25:08;;;;;;;;;11.75;11.00;;;;;19.11;58.70;100470.28;5076370;28;45721;-83
2021/10/20 03:27:43;;;;;;;;;11.00;10.75;;;;;18.99;58.70;100455.72;5077149;28;45754;-81
2021/10/20 03:30:10;;;;;;;;;12.50;11.75;;;;;18.89;58.87;100431.16;5083095;28;46575;-82
2021/10/20 03:32:35;;;;;;;;;12.25;11.00;;;;;19.07;58.78;100453.03;5077516;28;46005;-83
2021/10/20 03:35:02;;;;;;;;;11.50;11.00;;;;;19.06;58.81;100443.41;5074146;28;45703;-82
2021/10/20 03:37:28;;;;;;;;;11.50;11.50;;;;;18.77;59.10;100398.81;5077914;28;45901;-83
2021/10/20 03:39:53;;;;;;;;;11.50;11.00;;;;;18.96;59.00;100424.16;5075616;28;45722;-84
2021/10/20 03:42:19;;;;;;;;;11.50;10.25;;;;;18.93;59.13;100416.56;5074420;28;45717;-83
2021/10/20 03:44:45;;;;;;;;;10.50;10.50;;;;;18.97;58.95;100436.47;5072538;28;45833;-83
2021/10/20 03:47:10;;;;;;;;;15.25;13.25;;;;;18.84;58.84;100413.06;5074536;28;45448;-83
2021/10/20 03:49:37;;;;;;;;;15.25;15.25;;;;;18.82;59.05;100412.41;5072762;28;47531;-83
2021/10/20 03:52:03;;;;;;;;;13.75;11.25;;;;;18.96;59.02;100421.50;5074285;28;46190;-84
2021/10/20 03:54:28;;;;;;;;;12.50;11.50;;;;;18.99;59.06;100429.16;5073962;28;45531;-83
2021/10/20 03:56:53;;;;;;;;;11.00;11.00;;;;;18.79;59.45;100404.75;5074163;28;45644;-84
2021/10/20 03:59:19;;;;;;;;;11.75;11.25;;;;;18.96;59.02;100426.81;5074008;28;46554;-84
2021/10/20 04:01:44;;;;;;;;;12.25;11.25;;;;;18.84;59.14;100413.06;5073964;28;46180;-84
2021/10/20 04:07:31;;;;;;;;;11.50;11.00;;;;;18.90;59.11;100427.50;5072544;28;45746;-84
2021/10/20 04:09:56;;;;;;;;;14.50;12.50;;;;;18.74;59.70;100390.34;5074138;28;46662;-83
2021/10/20 04:12:21;;;;;;;;;10.75;10.50;;;;;18.64;59.51;100353.34;5074118;28;46441;-84
2021/10/20 04:14:47;;;;;;;;;10.00;10.00;;;;;18.78;59.54;100367.78;5055666;28;45589;-84
2021/10/20 04:17:12;;;;;;;;;12.25;12.00;;;;;18.75;60.02;100365.47;5074762;28;45692;-83
2021/10/20 04:22:59;;;;;;;;;12.75;12.00;;;;;18.74;59.93;100366.44;5077514;28;46183;-82
2021/10/20 04:25:25;;;;;;;;;15.00;14.00;;;;;18.79;60.13;100367.59;5077377;28;45774;-84
2021/10/20 04:27:51;;;;;;;;;13.00;12.50;;;;;18.77;59.92;100376.75;5077611;28;45458;-82
2021/10/20 04:30:18;;;;;;;;;13.75;12.75;;;;;18.74;59.87;100385.84;5077338;28;45724;-81
2021/10/20 04:32:44;;;;;;;;;14.00;12.25;;;;;18.73;59.84;100383.41;5077171;28;46046;-83
2021/10/20 04:35:10;;;;;;;;;13.50;12.00;;;;;18.72;60.16;100376.41;5077255;28;45808;-82
2021/10/20 04:37:37;;;;;;;;;13.00;12.00;;;;;18.70;60.01;100367.78;5077142;28;45710;-83
2021/10/20 04:40:04;;;;;;;;;12.00;11.75;;;;;18.60;59.85;100357.34;5077154;28;46955;-83
2021/10/20 04:42:31;;;;;;;;;13.00;12.75;;;;;18.45;60.29;100343.06;5076001;28;45907;-83
2021/10/20 04:44:58;;;;;;;;;10.25;9.75;;;;;18.67;59.82;100389.38;5077060;28;45510;-84
2021/10/20 04:47:24;;;;;;;;;12.00;12.00;;;;;18.45;60.20;100365.13;5076677;28;45817;-83
2021/10/20 04:53:11;;;;;;;;;12.00;12.00;;;;;18.46;60.23;100372.06;5076392;28;45730;-84
2021/10/20 04:55:36;;;;;;;;;14.50;14.00;;;;;18.41;60.49;100374.38;5076551;28;45696;-84
2021/10/20 04:58:07;;;;;;;;;11.25;11.25;;;;;18.59;60.60;100410.59;5077226;28;45907;-83
2021/10/20 05:00:34;;;;;;;;;12.00;12.00;;;;;18.58;60.13;100411.56;5058213;28;48618;-81
2021/10/20 05:03:00;;;;;;;;;13.00;12.25;;;;;18.43;60.34;100396.28;5076558;28;46109;-84
2021/10/20 05:05:31;;;;;;;;;14.50;13.25;;;;;18.32;60.43;100364.78;5058137;28;45678;-84
2021/10/20 05:07:58;;;;;;;;;12.00;12.00;;;;;18.22;60.68;100350.00;5057837;28;45792;-83
2021/10/20 05:10:26;;;;;;;;;10.75;10.00;;;;;18.55;60.91;100388.03;5076410;28;46367;-83
2021/10/20 05:12:53;;;;;;;;;11.50;11.00;;;;;18.42;60.76;100385.81;5076638;28;46013;-83
2021/10/20 05:15:19;;;;;;;;;13.00;12.75;;;;;18.54;60.92;100408.44;5076705;28;45496;-81
2021/10/20 05:17:46;;;;;;;;;14.00;12.50;;;;;18.36;60.83;100366.09;5080256;28;45577;-83
2021/10/20 05:23:33;;;;;;;;;12.75;12.25;;;;;18.38;60.86;100369.41;5082651;28;45847;-82
2021/10/20 05:26:01;;;;;;;;;13.00;12.00;;;;;18.30;61.06;100344.72;5081731;28;45638;-83
2021/10/20 05:28:29;;;;;;;;;7.25;7.00;;;;;18.50;60.64;100375.22;5077986;28;46079;-84
2021/10/20 05:30:54;;;;;;;;;13.00;12.00;;;;;17.98;61.07;100290.66;5076347;28;45715;-84
2021/10/20 05:33:20;;;;;;;;;13.75;12.50;;;;;18.22;61.21;100328.78;5058365;28;48126;-83
2021/10/20 05:35:45;;;;;;;;;11.25;11.25;;;;;18.32;60.68;100332.09;5076834;28;45633;-83
2021/10/20 05:38:10;;;;;;;;;12.50;11.25;;;;;18.34;61.05;100307.09;5076885;28;45518;-83
2021/10/20 05:40:36;;;;;;;;;12.50;12.50;;;;;18.41;61.23;100341.72;5057704;28;47453;-83
2021/10/20 05:43:01;;;;;;;;;13.00;12.00;;;;;18.50;60.83;100340.75;5076179;28;45566;-82
2021/10/20 05:45:28;;;;;;;;;12.75;11.00;;;;;18.51;61.21;100328.31;5076155;28;45685;-83
2021/10/20 05:47:53;;;;;;;;;14.25;14.00;;;;;18.50;61.38;100335.44;5076264;28;45604;-83
2021/10/20 05:53:40;;;;;;;;;13.75;13.00;;;;;18.34;61.39;100298.31;5075808;28;46016;-82
2021/10/20 05:56:06;;;;;;;;;12.00;12.00;;;;;18.42;61.35;100298.28;5075896;28;45510;-82
2021/10/20 05:58:32;;;;;;;;;13.00;13.00;;;;;18.35;61.11;100303.41;5076095;28;45663;-81
2021/10/20 06:00:57;;;;;;;;;13.50;12.00;;;;;18.51;61.20;100326.50;5075889;28;46054;-81
2021/10/20 06:03:23;;;;;;;;;12.25;12.25;;;;;18.37;61.39;100287.34;5076453;28;45659;-82
2021/10/20 06:09:10;;;;;;;;;13.25;12.75;;;;;18.41;61.33;100291.31;5074695;28;45879;-83
2021/10/20 06:11:36;;;;;;;;;12.25;11.50;;;;;18.51;61.14;100339.75;5075771;28;46857;-83
2021/10/20 06:14:02;;;;;;;;;15.75;13.50;;;;;18.41;61.55;100305.41;5075602;28;46482;-83
2021/10/20 06:16:27;;;;;;;;;13.50;11.75;;;;;18.44;61.16;100312.22;5057024;28;45569;-81
2021/10/20 06:18:53;;;;;;;;;13.25;12.50;;;;;18.36;61.20;100285.69;5073497;28;45760;-83
2021/10/20 06:21:19;;;;;;;;;11.75;11.75;;;;;18.23;61.47;100241.13;5075101;28;45510;-84
2021/10/20 06:23:45;;;;;;;;;12.00;12.00;;;;;18.21;61.48;100229.00;5057061;28;48193;-83
2021/10/20 06:26:10;;;;;;;;;13.25;12.50;;;;;18.28;61.65;100249.41;5056855;28;45660;-83
2021/10/20 06:28:36;;;;;;;;;17.50;16.00;;;;;18.48;61.68;100271.09;5075636;28;45544;-82
2021/10/20 06:31:01;;;;;;;;;13.00;12.50;;;;;18.28;61.70;100241.44;5075141;28;46437;-84
2021/10/20 06:33:27;;;;;;;;;10.75;10.75;;;;;18.26;61.60;100230.16;5056665;28;47244;-82
2021/10/20 06:39:20;;;;;;;;;13.25;13.00;;;;;18.42;61.33;100266.44;5075274;28;45629;-83
2021/10/20 06:41:45;;;;;;;;;13.25;12.00;;;;;18.45;61.76;100274.09;5075017;28;46205;-82
2021/10/20 06:44:11;;;;;;;;;14.50;13.50;;;;;18.51;61.63;100285.84;5074313;28;45610;-82
2021/10/20 06:46:36;;;;;;;;;14.25;14.25;;;;;18.49;61.84;100282.53;5075244;28;45561;-82
2021/10/20 06:49:01;;;;;;;;;15.00;14.50;;;;;18.44;61.65;100262.66;5075251;28;45538;-82
2021/10/20 06:51:27;;;;;;;;;13.00;12.00;;;;;18.35;62.06;100252.22;5075027;28;46573;-81
2021/10/20 06:53:52;;;;;;;;;13.00;11.75;;;;;18.39;62.04;100248.22;5074790;28;45652;-82
2021/10/20 06:56:17;;;;;;;;;16.00;15.25;;;;;18.27;62.43;100233.66;5056442;28;45676;-82
2021/10/20 06:58:43;;;;;;;;;17.25;14.00;;;;;18.44;62.11;100260.00;5056817;28;45968;-82
2021/10/20 07:01:08;;;;;;;;;15.50;13.75;;;;;18.20;62.54;100209.63;5074910;28;46368;-83
2021/10/20 07:03:34;;;;;;;;;16.75;13.00;;;;;18.37;62.74;100243.09;5075658;28;45590;-80
2021/10/20 07:09:22;;;;;;;;;14.25;13.25;;;;;18.38;62.58;100243.91;5075466;28;45617;-82
2021/10/20 07:11:48;;;;;;;;;12.50;12.00;;;;;18.34;62.88;100242.59;5077596;28;46422;-81
2021/10/20 07:14:14;;;;;;;;;16.00;15.00;;;;;18.25;62.78;100223.19;5077788;28;46298;-81
2021/10/20 07:16:40;;;;;;;;;13.25;12.75;;;;;18.37;63.14;100243.09;5077288;28;45785;-82
2021/10/20 07:19:07;;;;;;;;;16.75;15.00;;;;;18.36;62.82;100243.25;5079588;28;45577;-83
2021/10/20 07:21:36;;;;;;;;;18.00;15.50;;;;;18.12;63.09;100207.00;5065329;28;47573;-82
2021/10/20 07:24:03;;;;;;;;;14.75;14.00;;;;;18.33;63.48;100230.31;5094093;28;45467;-81
2021/10/20 07:26:28;;;;;;;;;12.00;11.00;;;;;18.22;63.28;100215.59;5095971;28;45376;-83
2021/10/20 07:28:54;;;;;;;;;11.75;11.00;;;;;18.24;63.24;100224.22;5079386;28;45481;-83
2021/10/20 07:31:19;;;;;;;;;15.25;13.50;;;;;18.26;63.69;100237.28;5095351;28;45450;-82
2021/10/20 07:33:45;;;;;;;;;16.75;15.00;;;;;18.03;63.97;100200.00;5097793;28;45562;-84
2021/10/20 07:39:33;;;;;;;;;14.75;13.75;;;;;18.11;64.20;100223.06;5095878;28;45514;-84
2021/10/20 07:41:58;;;;;;;;;17.50;15.50;;;;;18.07;63.51;100227.88;5094210;28;46691;-83
2021/10/20 07:44:24;;;;;;;;;15.50;14.50;;;;;18.16;64.14;100250.72;5091646;28;44996;-83
2021/10/20 07:46:49;;;;;;;;;16.50;14.25;;;;;18.18;64.09;100259.34;5091408;28;45661;-82
2021/10/20 07:49:15;;;;;;;;;16.00;15.50;;;;;18.18;64.22;100253.22;5079177;28;45805;-83
2021/10/20 07:51:40;;;;;;;;;15.75;14.00;;;;;18.16;64.33;100261.34;5084897;28;45620;-82
2021/10/20 07:54:05;;;;;;;;;15.75;15.00;;;;;18.11;64.24;100270.78;5087722;28;46211;-83
2021/10/20 07:56:35;;;;;;;;;16.75;15.00;;;;;18.14;64.53;100273.13;5080255;28;45689;-82
2021/10/20 07:59:01;;;;;;;;;14.25;13.00;;;;;17.89;64.73;100254.53;5061931;28;45870;-81
2021/10/20 08:01:27;;;;;;;;;13.00;11.00;;;;;17.86;64.78;100231.03;5078582;28;45513;-83
2021/10/20 08:03:52;;;;;;;;;17.00;14.75;;;;;18.08;64.72;100273.78;5078208;28;46192;-82
2021/10/20 08:09:40;;;;;;;;;13.25;12.25;;;;;18.01;65.29;100270.94;5077081;27;45523;-82
2021/10/20 08:12:08;;;;;;;;;16.00;15.25;;;;;18.04;65.08;100275.91;5077787;28;46322;-83
2021/10/20 08:14:40;;;;;;;;;15.00;14.00;;;;;18.06;65.24;100279.25;5077996;28;46424;-81
2021/10/20 08:17:05;;;;;;;;;16.00;14.50;;;;;18.06;65.21;100284.53;5076014;28;45893;-83
2021/10/20 08:19:31;;;;;;;;;14.25;13.75;;;;;17.95;65.33;100271.59;5077652;28;45463;-82
2021/10/20 08:21:56;;;;;;;;;18.50;15.25;;;;;18.06;65.70;100289.00;5077318;28;46539;-83
2021/10/20 08:24:21;;;;;;;;;17.00;16.25;;;;;17.84;65.96;100258.69;5077150;28;45666;-82
2021/10/20 08:26:47;;;;;;;;;16.00;13.75;;;;;17.93;65.72;100270.94;5077537;28;45623;-82
2021/10/20 08:29:12;;;;;;;;;14.50;14.25;;;;;17.95;65.81;100295.47;5077305;28;45802;-82
2021/10/20 08:31:37;;;;;;;;;15.50;14.50;;;;;17.95;66.00;100285.69;5076947;28;45828;-82
2021/10/20 08:34:03;;;;;;;;;14.00;14.00;;;;;17.98;65.80;100285.34;5077315;28;46280;-83
2021/10/20 08:39:50;;;;;;;;;14.50;14.00;;;;;18.03;65.81;100291.00;5076932;28;45600;-83
2021/10/20 08:42:16;;;;;;;;;13.75;13.75;;;;;18.06;66.40;100291.66;5076648;28;45777;-82
2021/10/20 08:44:42;;;;;;;;;14.75;13.75;;;;;18.05;65.89;100277.56;5077025;28;45504;-83
2021/10/20 08:47:11;;;;;;;;;16.00;15.00;;;;;18.08;66.15;100290.53;5076909;28;45815;-84
2021/10/20 08:49:38;;;;;;;;;18.00;14.25;;;;;18.13;66.52;100304.09;5076838;28;45786;-83
2021/10/20 08:52:04;;;;;;;;;18.50;17.25;;;;;18.11;66.43;100303.44;5077232;28;45709;-81
2021/10/20 08:54:30;;;;;;;;;14.50;14.50;;;;;17.93;66.13;100270.94;5075197;28;45498;-83
2021/10/20 08:56:56;;;;;;;;;15.50;14.50;;;;;18.19;66.47;100313.22;5076910;28;45677;-83
2021/10/20 08:59:22;;;;;;;;;14.75;14.00;;;;;18.17;66.04;100302.78;5076955;28;45742;-82
2021/10/20 09:01:48;;;;;;;;;17.75;16.75;;;;;18.24;66.50;100308.25;5077308;28;45537;-82
2021/10/20 09:04:19;;;;;;;;;17.00;17.00;;;;;18.18;66.15;100293.84;5078480;28;45947;-84
2021/10/20 09:10:06;;;;;;;;;15.00;14.50;;;;;18.25;66.60;100308.06;5076161;28;45789;-81
2021/10/20 09:12:37;;;;;;;;;17.25;15.50;;;;;18.15;66.71;100280.06;5079476;28;45751;-81
2021/10/20 09:15:04;;;;;;;;;18.25;16.75;;;;;18.31;66.55;100296.78;5078781;28;46074;-80
2021/10/20 09:17:46;;;;;;;;;16.75;15.75;;;;;18.31;66.40;100291.50;5078416;28;45584;-81
2021/10/20 09:20:19;;;;;;;;;18.25;16.25;;;;;18.24;67.08;100274.59;5077987;28;45463;-82
2021/10/20 09:22:56;;;;;;;;;18.25;17.00;;;;;18.25;66.95;100281.53;5058855;28;48185;-82
2021/10/20 09:25:23;;;;;;;;;17.50;16.25;;;;;18.37;67.34;100296.13;5076179;28;46163;-83
2021/10/20 09:27:50;;;;;;;;;17.75;17.50;;;;;18.38;66.86;100292.50;5076176;28;45621;-82
2021/10/20 09:30:15;;;;;;;;;17.75;17.00;;;;;18.39;67.15;100299.47;5076370;28;45622;-81
2021/10/20 09:32:41;;;;;;;;;18.25;16.25;;;;;18.43;66.84;100284.84;5058200;28;46101;-82
2021/10/20 09:35:12;;;;;;;;;19.75;16.50;;;;;18.45;67.41;100282.88;5059024;28;47327;-82
2021/10/20 09:37:38;;;;;;;;;16.25;15.25;;;;;18.50;67.11;100286.84;5077619;28;45595;-81
2021/10/20 09:40:06;;;;;;;;;14.00;13.00;;;;;18.46;67.12;100275.75;5076608;28;45776;-83
2021/10/20 09:42:43;;;;;;;;;16.00;16.00;;;;;18.44;67.66;100265.31;5075888;28;46823;-82
2021/10/20 09:45:09;;;;;;;;;18.25;17.00;;;;;18.52;67.03;100274.22;5075983;28;45978;-82
2021/10/20 09:47:37;;;;;;;;;14.50;14.25;;;;;18.56;67.24;100272.94;5076204;28;45581;-82
2021/10/20 09:50:06;;;;;;;;;15.75;14.50;;;;;18.60;67.33;100280.41;5075543;28;45574;-83
2021/10/20 09:52:43;;;;;;;;;14.75;13.50;;;;;18.58;67.57;100257.66;5075924;28;45819;-82
2021/10/20 09:55:13;;;;;;;;;16.25;15.25;;;;;18.62;67.34;100285.53;5075755;28;46365;-82
2021/10/20 09:57:39;;;;;;;;;20.75;15.75;;;;;18.67;67.78;100272.59;5074543;28;45785;-82
2021/10/20 10:00:05;;;;;;;;;16.00;16.00;;;;;18.54;67.19;100254.53;5076005;28;45476;-82
2021/10/20 10:02:30;;;;;;;;;20.50;15.75;;;;;18.59;67.15;100254.84;5075705;28;46980;-83
2021/10/20 10:04:56;;;;;;;;;16.00;15.25;;;;;18.73;67.20;100262.09;5057338;28;46526;-82
2021/10/20 10:07:21;;;;;;;;;14.25;13.75;;;;;18.80;67.53;100259.59;5075762;28;45696;-82
2021/10/20 10:09:47;;;;;;;;;15.25;14.50;;;;;18.70;67.08;100248.34;5075528;28;45557;-82
2021/10/20 10:12:19;;;;;;;;;13.00;12.75;;;;;18.85;67.28;100263.41;5075877;28;45559;-82
2021/10/20 10:14:49;;;;;;;;;15.75;14.75;;;;;18.79;66.65;100244.66;5075932;28;45586;-82
2021/10/20 10:17:18;;;;;;;;;17.50;15.25;;;;;18.89;66.81;100261.25;5075478;28;45566;-81
2021/10/20 10:19:44;;;;;;;;;16.75;16.00;;;;;18.90;67.23;100260.22;5075234;28;45514;-80
2021/10/20 10:25:38;;;;;;;;;17.25;14.25;;;;;18.96;67.10;100270.16;5075108;28;45863;-82
2021/10/20 10:28:05;;;;;;;;;14.50;13.25;;;;;18.99;67.07;100256.56;5075313;28;45580;-82
2021/10/20 10:30:44;;;;;;;;;15.50;15.00;;;;;19.02;66.99;100258.88;5075773;28;45681;-82
2021/10/20 10:33:15;;;;;;;;;14.50;13.00;;;;;18.92;67.05;100229.03;5075686;28;45666;-81
2021/10/20 10:35:41;;;;;;;;;15.75;14.75;;;;;18.97;67.17;100231.16;5075547;28;45857;-83
2021/10/20 10:38:06;;;;;;;;;15.75;15.75;;;;;19.10;67.29;100256.19;5075239;28;45621;-82
2021/10/20 10:40:32;;;;;;;;;18.75;15.50;;;;;19.04;67.00;100238.28;5075125;28;45510;-80
2021/10/20 10:43:11;;;;;;;;;13.50;13.00;;;;;19.07;67.14;100237.09;5075264;28;46385;-82
2021/10/20 10:45:37;;;;;;;;;15.25;12.75;;;;;19.19;66.85;100251.66;5056434;28;46295;-81
2021/10/20 10:48:05;;;;;;;;;14.00;13.50;;;;;19.21;67.43;100241.69;5057065;28;45697;-81
2021/10/20 10:50:41;;;;;;;;;14.75;14.50;;;;;19.23;66.94;100231.72;5075289;28;45514;-82
2021/10/20 10:53:08;;;;;;;;;12.25;12.25;;;;;19.25;66.98;100217.28;5075493;28;46784;-82
2021/10/20 10:55:34;;;;;;;;;11.25;8.75;;;;;19.31;66.89;100222.88;5056991;28;48437;-83
2021/10/20 10:58:02;;;;;;;;;12.50;11.25;;;;;19.31;66.95;100215.75;5056938;28;45718;-81
2021/10/20 11:00:32;;;;;;;;;9.00;9.00;;;;;19.40;66.85;100217.34;5073373;28;45657;-83
2021/10/20 11:03:13;;;;;;;;;10.50;10.50;;;;;19.46;66.77;100218.50;5075235;28;45557;-83
2021/10/20 11:05:46;;;;;;;;;11.75;10.50;;;;;19.51;66.67;100221.47;5076360;28;45968;-82
2021/10/20 11:08:12;;;;;;;;;9.00;9.00;;;;;19.49;66.73;100207.50;5082027;28;45578;-83
2021/10/20 11:10:40;;;;;;;;;10.50;10.00;;;;;19.49;66.81;100207.50;5081087;28;45615;-82
2021/10/20 11:13:06;;;;;;;;;11.50;10.00;;;;;19.47;66.10;100202.38;5081945;28;45574;-82
2021/10/20 11:15:33;;;;;;;;;9.25;9.25;;;;;19.63;66.29;100220.06;5081308;28;46475;-82
2021/10/20 11:17:59;;;;;;;;;14.00;9.50;;;;;19.57;66.58;100204.81;5076535;28;45722;-82
2021/10/20 11:20:28;;;;;;;;;11.75;8.50;;;;;19.54;66.38;100184.72;5075013;28;45690;-82
2021/10/20 11:23:05;;;;;;;;;11.50;10.50;;;;;19.65;66.47;100186.13;5075495;28;46843;-82
2021/10/20 11:25:32;;;;;;;;;12.50;11.50;;;;;19.60;66.60;100183.19;5074843;28;45803;-83
2021/10/20 11:27:58;;;;;;;;;12.00;11.25;;;;;19.75;66.44;100197.38;5074641;28;45475;-82
2021/10/20 11:30:30;;;;;;;;;9.75;9.00;;;;;19.80;66.31;100205.66;5077418;28;45644;-83
2021/10/20 11:32:58;;;;;;;;;9.50;9.25;;;;;19.84;66.24;100203.44;5078148;28;45596;-83
2021/10/20 11:35:29;;;;;;;;;10.00;8.00;;;;;19.69;66.21;100164.34;5059301;28;46076;-84
2021/10/20 11:38:05;;;;;;;;;12.75;10.75;;;;;19.87;66.42;100182.63;5078189;28;45644;-82
2021/10/20 11:40:39;;;;;;;;;7.50;6.50;;;;;19.75;66.06;100138.06;5059557;28;45593;-83
2021/10/20 11:43:13;;;;;;;;;8.00;8.00;;;;;19.89;65.93;100161.19;5078377;28;45600;-83
2021/10/20 11:45:39;;;;;;;;;10.00;8.25;;;;;20.05;66.10;100182.31;5076276;28;46074;-83
2021/10/20 11:48:08;;;;;;;;;11.25;9.25;;;;;20.15;65.81;100177.56;5078344;28;45640;-81
2021/10/20 11:50:33;;;;;;;;;9.50;9.00;;;;;20.00;65.89;100150.13;5078053;28;45534;-84
2021/10/20 11:53:03;;;;;;;;;7.00;7.00;;;;;20.13;65.80;100154.81;5059256;28;47495;-82
2021/10/20 11:55:29;;;;;;;;;9.25;7.50;;;;;20.10;65.78;100134.72;5077832;28;45961;-83
2021/10/20 11:57:56;;;;;;;;;8.00;7.00;;;;;20.21;65.40;100147.56;5077968;28;45735;-81
2021/10/20 12:00:22;;;;;;;;;9.25;7.25;;;;;20.33;65.52;100154.13;5059612;28;45907;-83
2021/10/20 12:02:48;;;;;;;;;6.25;6.25;;;;;20.18;65.65;100117.84;5059365;28;48378;-83
2021/10/20 12:05:13;;;;;;;;;8.75;7.75;;;;;20.11;65.34;100096.47;5059438;28;47249;-82
2021/10/20 12:11:02;;;;;;;;;28.00;24.50;;;;;20.41;64.95;100130.06;5075612;27;45629;-82
2021/10/20 12:13:27;;;;;;;;;8.25;8.00;;;;;20.31;64.93;100102.06;5058977;28;48811;-83
2021/10/20 12:15:55;;;;;;;;;23.25;21.75;;;;;20.37;64.62;100104.03;5077628;28;45622;-82
2021/10/20 12:18:24;;;;;;;;;8.50;7.25;;;;;20.50;64.82;100121.00;5077945;28;45688;-84
2021/10/20 12:20:54;;;;;;;;;6.50;6.50;;;;;20.60;64.43;100130.53;5078046;28;45569;-83
2021/10/20 12:23:20;;;;;;;;;9.00;7.50;;;;;20.64;64.49;100123.81;5077478;28;46213;-83
2021/10/20 12:25:46;;;;;;;;;8.00;6.00;;;;;20.58;63.96;100090.78;5077119;28;45940;-82
2021/10/20 12:28:12;;;;;;;;;7.50;6.75;;;;;20.69;64.12;100097.47;5077719;28;45676;-84
2021/10/20 12:30:39;;;;;;;;;8.00;6.00;;;;;20.74;64.33;100087.06;5058973;28;45686;-82
2021/10/20 12:33:09;;;;;;;;;7.75;7.50;;;;;20.81;64.03;100104.78;5058838;28;47985;-83